createdAt,value
2019-05-14T00:01:11.981Z,8.19
2019-05-14T00:02:52.100Z,8.15
2019-05-14T00:04:33.595Z,8.73
2019-05-14T00:06:12.995Z,8.08
2019-05-14T00:07:52.469Z,8.09
2019-05-14T00:09:32.247Z,8.12
2019-05-14T00:11:12.941Z,8.09
2019-05-14T00:12:52.679Z,8.12
2019-05-14T00:14:39.513Z,8.08
2019-05-14T00:16:24.133Z,8.06
2019-05-14T00:18:03.020Z,8.65
2019-05-14T00:19:42.464Z,8.03
2019-05-14T00:21:21.880Z,7.99
2019-05-14T00:23:01.513Z,8
2019-05-14T00:24:41.524Z,7.98
2019-05-14T00:26:21.538Z,7.94
2019-05-14T00:28:01.305Z,7.91
2019-05-14T00:29:41.664Z,7.85
2019-05-14T00:31:21.488Z,7.81
2019-05-14T00:33:01.320Z,7.75
2019-05-14T00:34:42.388Z,7.69
2019-05-14T00:36:21.642Z,7.64
2019-05-14T00:38:01.451Z,7.58
2019-05-14T00:39:41.535Z,7.54
2019-05-14T00:41:21.576Z,7.5
2019-05-14T00:43:02.604Z,7.46
2019-05-14T00:44:53.392Z,7.4
2019-05-14T00:46:37.513Z,7.37
2019-05-14T00:48:18.972Z,7.33
2019-05-14T00:50:02.159Z,7.93
2019-05-14T00:51:41.780Z,7.28
2019-05-14T00:53:21.471Z,7.25
2019-05-14T00:55:01.168Z,7.22
2019-05-14T00:56:41.598Z,7.16
2019-05-14T00:58:21.730Z,7.11
2019-05-14T01:00:01.312Z,7.07
2019-05-14T01:01:42.432Z,7.07
2019-05-14T01:03:22.108Z,7.04
2019-05-14T01:05:01.915Z,7.03
2019-05-14T01:06:42.020Z,6.99
2019-05-14T01:08:21.671Z,6.97
2019-05-14T01:10:01.363Z,6.93
2019-05-14T01:11:41.959Z,6.93
2019-05-14T01:13:21.988Z,6.93
2019-05-14T01:15:07.653Z,6.91
2019-05-14T01:16:52.031Z,6.95
2019-05-14T01:18:32.204Z,6.93
2019-05-14T01:20:12.291Z,6.94
2019-05-14T01:21:51.338Z,6.9
2019-05-14T01:23:32.242Z,6.89
2019-05-14T01:25:24.738Z,6.88
2019-05-14T01:28:04.445Z,7.48
2019-05-14T01:29:48.052Z,6.49
2019-05-14T01:31:31.264Z,6.78
2019-05-14T01:33:11.803Z,6.79
2019-05-14T01:34:52.137Z,6.76
2019-05-14T01:36:32.185Z,6.71
2019-05-14T01:38:11.909Z,6.66
2019-05-14T01:39:51.920Z,6.59
2019-05-14T01:41:31.765Z,6.6
2019-05-14T01:43:11.576Z,6.61
2019-05-14T01:44:51.849Z,6.61
2019-05-14T01:46:31.785Z,6.61
2019-05-14T01:48:11.722Z,6.65
2019-05-14T01:49:51.590Z,6.65
2019-05-14T01:51:31.674Z,6.63
2019-05-14T01:53:11.571Z,6.61
2019-05-14T01:54:51.598Z,6.61
2019-05-14T01:56:31.852Z,6.66
2019-05-14T01:58:11.652Z,6.69
2019-05-14T01:59:51.727Z,6.71
2019-05-14T02:01:31.602Z,6.74
2019-05-14T02:03:12.088Z,6.72
2019-05-14T02:04:51.735Z,6.7
2019-05-14T02:06:31.756Z,6.66
2019-05-14T02:08:12.096Z,6.58
2019-05-14T02:09:51.943Z,6.57
2019-05-14T02:11:32.008Z,6.51
2019-05-14T02:13:12.237Z,6.49
2019-05-14T02:14:52.082Z,6.49
2019-05-14T02:16:31.527Z,6.48
2019-05-14T02:18:11.154Z,6.45
2019-05-14T02:19:51.447Z,6.4
2019-05-14T02:21:31.676Z,6.35
2019-05-14T02:23:11.938Z,6.3
2019-05-14T02:24:52.056Z,6.87
2019-05-14T02:26:31.810Z,6.23
2019-05-14T02:28:21.728Z,6.8
2019-05-14T02:30:02.177Z,6.21
2019-05-14T02:31:41.731Z,6.19
2019-05-14T02:33:24.940Z,6.16
2019-05-14T02:35:09.805Z,6.14
2019-05-14T02:36:49.878Z,6.1
2019-05-14T02:38:30.055Z,6.08
2019-05-14T02:40:10.003Z,6.08
2019-05-14T02:41:49.991Z,6.05
2019-05-14T02:43:29.694Z,6.06
2019-05-14T02:45:09.339Z,6.06
2019-05-14T02:46:50.480Z,6.1
2019-05-14T02:48:30.298Z,6.12
2019-05-14T02:50:10.098Z,6.12
2019-05-14T02:51:50.511Z,6.74
2019-05-14T02:53:30.211Z,6.15
2019-05-14T02:55:09.802Z,6.21
2019-05-14T02:56:49.621Z,6.22
2019-05-14T02:58:30.027Z,6.28
2019-05-14T03:00:19.282Z,6.85
2019-05-14T03:01:59.255Z,6.28
2019-05-14T03:03:40.070Z,6.84
2019-05-14T03:05:19.794Z,6.2
2019-05-14T03:06:59.298Z,6.16
2019-05-14T03:08:39.230Z,6.13
2019-05-14T03:10:19.327Z,6.13
2019-05-14T03:11:59.601Z,6.06
2019-05-14T03:13:40.126Z,5.97
2019-05-14T03:15:20.149Z,6.48
2019-05-14T03:16:59.862Z,5.76
2019-05-14T03:18:39.573Z,5.67
2019-05-14T03:20:19.559Z,5.61
2019-05-14T03:22:00.165Z,5.56
2019-05-14T03:23:39.954Z,5.53
2019-05-14T03:25:19.482Z,5.51
2019-05-14T03:26:59.045Z,5.54
2019-05-14T03:28:39.763Z,5.56
2019-05-14T03:30:22.693Z,5.56
2019-05-14T03:32:12.533Z,5.56
2019-05-14T03:34:02.636Z,5.56
2019-05-14T03:35:51.527Z,5.54
2019-05-14T03:37:35.235Z,6.15
2019-05-14T03:39:19.069Z,5.55
2019-05-14T03:41:00.090Z,5.53
2019-05-14T03:42:40.109Z,5.49
2019-05-14T03:44:19.901Z,5.49
2019-05-14T03:45:59.675Z,5.46
2019-05-14T03:47:39.525Z,5.49
2019-05-14T03:49:19.790Z,5.49
2019-05-14T03:51:00.659Z,5.47
2019-05-14T03:52:49.779Z,6.1
2019-05-14T03:54:29.855Z,6.14
2019-05-14T03:56:10.414Z,5.53
2019-05-14T03:57:50.470Z,6.13
2019-05-14T03:59:30.035Z,5.51
2019-05-14T04:01:10.173Z,5.5
2019-05-14T04:02:49.513Z,5.52
2019-05-14T04:04:29.867Z,5.51
2019-05-14T04:06:10.125Z,5.53
2019-05-14T04:07:50.355Z,5.56
2019-05-14T04:09:30.058Z,5.62
2019-05-14T04:11:09.776Z,5.64
2019-05-14T04:12:49.512Z,5.68
2019-05-14T04:14:29.333Z,5.7
2019-05-14T04:16:09.435Z,5.77
2019-05-14T04:17:50.100Z,5.77
2019-05-14T04:19:29.873Z,5.81
2019-05-14T04:21:10.170Z,5.81
2019-05-14T04:22:50.150Z,5.8
2019-05-14T04:24:36.809Z,6.42
2019-05-14T04:26:19.968Z,5.87
2019-05-14T04:27:59.810Z,5.89
2019-05-14T04:29:39.540Z,5.95
2019-05-14T04:31:19.655Z,5.97
2019-05-14T04:32:59.562Z,6.05
2019-05-14T04:34:39.680Z,6.06
2019-05-14T04:36:19.797Z,6.06
2019-05-14T04:38:02.443Z,6.67
2019-05-14T04:39:44.406Z,6.11
2019-05-14T04:41:29.471Z,6.2
2019-05-14T04:43:10.259Z,6.28
2019-05-14T04:44:50.501Z,6.4
2019-05-14T04:46:30.365Z,7.07
2019-05-14T04:48:26.938Z,6.55
2019-05-14T04:50:25.570Z,6.36
2019-05-14T04:52:09.913Z,6.74
2019-05-14T04:53:50.233Z,6.8
2019-05-14T04:55:29.997Z,6.88
2019-05-14T04:57:10.150Z,6.97
2019-05-14T04:58:50.367Z,7.08
2019-05-14T05:00:30.444Z,7.16
2019-05-14T05:02:10.255Z,7.24
2019-05-14T05:03:50.499Z,7.32
2019-05-14T05:05:42.634Z,8.01
2019-05-14T05:07:24.801Z,7.46
2019-05-14T05:09:09.287Z,7.5
2019-05-14T05:10:49.558Z,7.53
2019-05-14T05:12:29.703Z,7.53
2019-05-14T05:14:09.297Z,7.56
2019-05-14T05:15:48.836Z,7.58
2019-05-14T05:17:42.364Z,7.62
2019-05-14T05:19:23.559Z,8.29
2019-05-14T05:21:05.510Z,7.71
2019-05-14T05:22:48.504Z,7.73
2019-05-14T05:24:28.792Z,7.77
2019-05-14T05:26:09.097Z,7.81
2019-05-14T05:27:48.910Z,7.79
2019-05-14T05:29:31.266Z,7.81
2019-05-14T05:31:10.783Z,7.82
2019-05-14T05:32:59.587Z,8.42
2019-05-14T05:34:39.645Z,8.49
2019-05-14T05:36:19.085Z,7.96
2019-05-14T05:37:58.589Z,8.08
2019-05-14T05:39:38.536Z,8.08
2019-05-14T05:41:18.990Z,8.13
2019-05-14T05:42:58.706Z,8.15
2019-05-14T05:44:39.308Z,8.12
2019-05-14T05:46:19.286Z,8.14
2019-05-14T05:48:01.585Z,8.21
2019-05-14T05:49:43.032Z,8.28
2019-05-14T05:51:25.111Z,8.28
2019-05-14T05:53:08.964Z,8.27
2019-05-14T05:54:49.087Z,8.29
2019-05-14T05:56:28.979Z,8.32
2019-05-14T05:58:08.713Z,8.37
2019-05-14T05:59:48.584Z,8.47
2019-05-14T06:01:41.567Z,8.49
2019-05-14T06:03:45.440Z,9.14
2019-05-14T06:05:29.198Z,8.53
2019-05-14T06:07:09.002Z,8.55
2019-05-14T06:08:49.239Z,8.53
2019-05-14T06:10:29.319Z,8.52
2019-05-14T06:12:08.969Z,8.53
2019-05-14T06:13:48.659Z,8.6
2019-05-14T06:15:43.679Z,8.67
2019-05-14T06:17:39.079Z,8.38
2019-05-14T06:19:19.374Z,8.77
2019-05-14T06:20:58.859Z,8.9
2019-05-14T06:22:38.579Z,9.1
2019-05-14T06:24:19.278Z,9.26
2019-05-14T06:25:59.673Z,9.34
2019-05-14T06:27:39.586Z,10.07
2019-05-14T06:29:19.240Z,9.55
2019-05-14T06:30:59.056Z,9.64
2019-05-14T06:32:38.916Z,9.61
2019-05-14T06:34:20.996Z,10.21
2019-05-14T06:36:00.378Z,9.64
2019-05-14T06:37:39.858Z,9.7
2019-05-14T06:39:19.364Z,9.8
2019-05-14T06:40:59.402Z,9.94
2019-05-14T06:42:39.623Z,9.91
2019-05-14T06:44:19.175Z,9.86
2019-05-14T06:45:58.807Z,9.86
2019-05-14T06:47:38.486Z,10
2019-05-14T06:49:18.291Z,10.13
2019-05-14T06:50:58.198Z,10.07
2019-05-14T06:52:38.571Z,10.01
2019-05-14T06:54:19.580Z,10.13
2019-05-14T06:55:59.466Z,10.81
2019-05-14T06:57:39.282Z,10.37
2019-05-14T06:59:19.036Z,10.48
2019-05-14T07:00:59.182Z,10.53
2019-05-14T07:02:43.447Z,10.57
2019-05-14T07:04:24.875Z,10.62
2019-05-14T07:06:08.958Z,10.66
2019-05-14T07:07:49.404Z,10.77
2019-05-14T07:09:28.897Z,10.87
2019-05-14T07:11:08.855Z,10.95
2019-05-14T07:12:49.855Z,9.76
2019-05-14T07:14:29.560Z,10.89
2019-05-14T07:16:09.240Z,10.99
2019-05-14T07:17:48.939Z,9.8
2019-05-14T07:19:29.349Z,10.97
2019-05-14T07:21:08.972Z,10.96
2019-05-14T07:22:48.501Z,9.76
2019-05-14T07:24:28.368Z,10.94
2019-05-14T07:26:11.734Z,11.1
2019-05-14T07:27:53.978Z,11.19
2019-05-14T07:29:34.720Z,10.03
2019-05-14T07:31:18.542Z,11.25
2019-05-14T07:32:58.784Z,11.32
2019-05-14T07:34:38.949Z,10.14
2019-05-14T07:36:19.090Z,11.39
2019-05-14T07:37:59.089Z,11.53
2019-05-14T07:39:38.818Z,10.31
2019-05-14T07:41:19.180Z,11.45
2019-05-14T07:42:59.071Z,10.25
2019-05-14T07:44:39.011Z,11.47
2019-05-14T07:46:19.242Z,10.39
2019-05-14T07:47:58.939Z,11.68
2019-05-14T07:49:38.644Z,11.88
2019-05-14T07:51:18.947Z,10.79
2019-05-14T07:52:58.758Z,11.78
2019-05-14T07:54:43.673Z,10.53
2019-05-14T07:56:24.733Z,11.78
2019-05-14T07:58:08.320Z,10.51
2019-05-14T07:59:48.485Z,11.61
2019-05-14T08:01:28.288Z,10.4
2019-05-14T08:03:08.188Z,11.72
2019-05-14T08:04:48.652Z,10.73
2019-05-14T08:06:28.324Z,11.9
2019-05-14T08:08:08.105Z,10.77
2019-05-14T08:09:48.088Z,12.06
2019-05-14T08:11:28.101Z,11.08
2019-05-14T08:13:08.425Z,12.18
2019-05-14T08:15:00.648Z,11.07
2019-05-14T08:17:03.952Z,11.94
2019-05-14T08:18:45.073Z,11.28
2019-05-14T08:20:28.629Z,12.52
2019-05-14T08:22:09.397Z,11.45
2019-05-14T08:23:49.392Z,13.34
2019-05-14T08:25:28.888Z,12.88
2019-05-14T08:27:08.609Z,11.81
2019-05-14T08:28:48.806Z,11.79
2019-05-14T08:30:28.637Z,11.82
2019-05-14T08:32:08.741Z,11.87
2019-05-14T08:33:49.008Z,11.92
2019-05-14T08:35:29.019Z,12.02
2019-05-14T08:37:14.402Z,12.16
2019-05-14T08:38:55.581Z,12.33
2019-05-14T08:40:38.198Z,12.41
2019-05-14T08:42:19.043Z,12.47
2019-05-14T08:43:59.439Z,12.57
2019-05-14T08:45:39.423Z,12.6
2019-05-14T08:47:23.732Z,12.61
2019-05-14T08:49:05.586Z,12.72
2019-05-14T08:50:48.100Z,12.76
2019-05-14T08:52:28.748Z,12.8
2019-05-14T08:54:08.474Z,12.87
2019-05-14T08:55:48.681Z,12.87
2019-05-14T08:57:29.097Z,12.94
2019-05-14T08:59:09.651Z,13.15
2019-05-14T09:00:49.134Z,13.4
2019-05-14T09:02:28.692Z,13.73
2019-05-14T09:04:09.091Z,14.13
2019-05-14T09:05:49.138Z,14.26
2019-05-14T09:07:29.055Z,14.39
2019-05-14T09:09:09.214Z,14.59
2019-05-14T09:10:49.799Z,14.8
2019-05-14T09:12:29.328Z,15.19
2019-05-14T09:14:10.756Z,15.56
2019-05-14T09:15:52.969Z,15.98
2019-05-14T09:17:38.975Z,16.44
2019-05-14T09:19:19.233Z,16.58
2019-05-14T09:20:59.022Z,16.72
2019-05-14T09:22:39.716Z,16.76
2019-05-14T09:24:18.973Z,17.13
2019-05-14T09:25:59.022Z,17.3
2019-05-14T09:27:38.835Z,17.04
2019-05-14T09:29:21.973Z,16.85
2019-05-14T09:31:08.476Z,16.8
2019-05-14T09:32:49.141Z,16.94
2019-05-14T09:34:29.197Z,17.24
2019-05-14T09:36:17.797Z,17.31
2019-05-14T09:38:08.663Z,16.77
2019-05-14T09:39:48.780Z,16.6
2019-05-14T09:41:30.789Z,16.86
2019-05-14T09:43:10.760Z,16.94
2019-05-14T09:45:00.197Z,16.48
2019-05-14T09:46:39.872Z,16
2019-05-14T09:48:19.425Z,16.05
2019-05-14T09:50:14.102Z,16.12
2019-05-14T09:52:10.433Z,16.16
2019-05-14T09:53:50.018Z,16.03
2019-05-14T09:55:29.480Z,15.89
2019-05-14T09:57:08.960Z,15.88
2019-05-14T09:58:49.443Z,15.77
2019-05-14T10:00:29.308Z,15.86
2019-05-14T10:02:09.245Z,16.29
2019-05-14T10:03:49.504Z,16.6
2019-05-14T10:05:29.391Z,16.56
2019-05-14T10:07:08.999Z,16.43
2019-05-14T10:08:52.105Z,16.58
2019-05-14T10:10:33.794Z,16.63
2019-05-14T10:12:26.906Z,16.48
2019-05-14T10:14:07.939Z,16.32
2019-05-14T10:15:48.555Z,16.57
2019-05-14T10:17:28.943Z,16.45
2019-05-14T10:19:08.804Z,16.55
2019-05-14T10:20:49.844Z,16.91
2019-05-14T10:22:29.470Z,16.92
2019-05-14T10:24:09.471Z,17.14
2019-05-14T10:25:49.570Z,16.65
2019-05-14T10:27:29.179Z,16.74
2019-05-14T10:29:08.984Z,16.81
2019-05-14T10:30:49.118Z,16.77
2019-05-14T10:32:29.529Z,16.8
2019-05-14T10:34:09.428Z,16.5
2019-05-14T10:35:49.112Z,16.22
2019-05-14T10:37:28.935Z,16.17
2019-05-14T10:39:09.447Z,16.15
2019-05-14T10:40:49.260Z,16.28
2019-05-14T10:42:29.314Z,16.02
2019-05-14T10:44:09.342Z,16.34
2019-05-14T10:45:49.457Z,17.22
2019-05-14T10:47:29.317Z,17.43
2019-05-14T10:49:17.315Z,17.69
2019-05-14T10:51:04.863Z,17.89
2019-05-14T10:52:53.455Z,17.99
2019-05-14T10:54:38.674Z,18.35
2019-05-14T10:56:39.168Z,18.08
2019-05-14T10:58:19.639Z,17.87
2019-05-14T10:59:59.585Z,17.72
2019-05-14T11:01:39.264Z,17.63
2019-05-14T11:03:19.058Z,17.58
2019-05-14T11:04:59.123Z,17.67
2019-05-14T11:06:38.923Z,18.13
2019-05-14T11:08:18.999Z,18.44
2019-05-14T11:09:58.998Z,18.99
2019-05-14T11:11:38.853Z,18.87
2019-05-14T11:13:19.037Z,19.1
2019-05-14T11:14:59.091Z,18.79
2019-05-14T11:16:41.828Z,18.48
2019-05-14T11:18:29.051Z,18.1
2019-05-14T11:20:09.180Z,17.64
2019-05-14T11:21:49.096Z,17.61
2019-05-14T11:23:29.607Z,17.69
2019-05-14T11:25:09.396Z,18
2019-05-14T11:26:49.344Z,18.27
2019-05-14T11:28:28.831Z,18.5
2019-05-14T11:30:09.100Z,18.49
2019-05-14T11:31:48.824Z,18.44
2019-05-14T11:33:29.631Z,18.61
2019-05-14T11:35:12.679Z,18.69
2019-05-14T11:36:55.538Z,19.36
2019-05-14T11:38:37.787Z,20.1
2019-05-14T11:40:18.894Z,20.66
2019-05-14T11:41:59.134Z,21.13
2019-05-14T11:43:39.874Z,21.23
2019-05-14T11:45:19.830Z,21.57
2019-05-14T11:47:02.309Z,21.98
2019-05-14T11:48:44.086Z,22.05
2019-05-14T11:50:28.620Z,22.22
2019-05-14T11:52:11.470Z,22.16
2019-05-14T11:53:52.653Z,22.01
2019-05-14T11:55:35.354Z,21.87
2019-05-14T11:57:22.021Z,22.42
2019-05-14T11:59:01.761Z,22.56
2019-05-14T12:00:43.619Z,22.77
2019-05-14T12:02:23.195Z,23.34
2019-05-14T12:04:09.067Z,23.38
2019-05-14T12:05:49.592Z,22.84
2019-05-14T12:07:29.477Z,22.38
2019-05-14T12:09:11.725Z,22.64
2019-05-14T12:10:53.718Z,22.66
2019-05-14T12:12:35.833Z,22.67
2019-05-14T12:14:15.005Z,22.69
2019-05-14T12:15:59.042Z,22.8
2019-05-14T12:17:39.526Z,22.86
2019-05-14T12:19:19.096Z,23.28
2019-05-14T12:20:59.318Z,23.83
2019-05-14T12:22:39.417Z,23.9
2019-05-14T12:24:18.480Z,23.74
2019-05-14T12:25:58.692Z,23.1
2019-05-14T12:27:38.855Z,22.66
2019-05-14T12:29:18.416Z,22.81
2019-05-14T12:30:58.299Z,22.97
2019-05-14T12:32:39.411Z,22.87
2019-05-14T12:34:19.409Z,22.21
2019-05-14T12:36:00.453Z,22.13
2019-05-14T12:37:40.258Z,22.56
2019-05-14T12:39:19.765Z,22.97
2019-05-14T12:40:59.228Z,23.52
2019-05-14T12:42:39.413Z,23.75
2019-05-14T12:44:19.519Z,23.66
2019-05-14T12:45:59.551Z,22.85
2019-05-14T12:47:38.655Z,22.62
2019-05-14T12:49:18.762Z,22.46
2019-05-14T12:50:59.444Z,22.56
2019-05-14T12:52:39.493Z,22.32
2019-05-14T12:54:19.869Z,21.85
2019-05-14T12:55:59.571Z,21.57
2019-05-14T12:57:39.742Z,21.4
2019-05-14T12:59:19.408Z,21.95
2019-05-14T13:00:59.493Z,22.43
2019-05-14T13:02:39.292Z,21.98
2019-05-14T13:04:20.032Z,21.98
2019-05-14T13:05:59.254Z,22.03
2019-05-14T13:07:41.730Z,22.69
2019-05-14T13:09:25.798Z,22.77
2019-05-14T13:11:05.392Z,22.85
2019-05-14T13:12:48.311Z,23.4
2019-05-14T13:14:28.311Z,23.88
2019-05-14T13:16:10.734Z,24.26
2019-05-14T13:17:50.355Z,24.41
2019-05-14T13:19:29.917Z,24.77
2019-05-14T13:21:09.449Z,25
2019-05-14T13:22:50.138Z,25.28
2019-05-14T13:24:31.330Z,25.28
2019-05-14T13:26:14.011Z,25.39
2019-05-14T13:27:55.540Z,25.6
2019-05-14T13:29:37.493Z,25.8
2019-05-14T13:31:18.260Z,25.63
2019-05-14T13:32:59.185Z,25.44
2019-05-14T13:34:39.649Z,25.3
2019-05-14T13:36:20.637Z,25.19
2019-05-14T13:38:03.612Z,24.66
2019-05-14T13:39:42.155Z,23.94
2019-05-14T13:41:28.420Z,23.43
2019-05-14T13:43:09.791Z,23.25
2019-05-14T13:44:54.706Z,23.72
2019-05-14T13:46:36.356Z,24.11
2019-05-14T13:48:18.721Z,24.6
2019-05-14T13:49:59.203Z,25.28
2019-05-14T13:51:38.853Z,25.13
2019-05-14T13:53:18.836Z,24.85
2019-05-14T13:54:58.551Z,25.05
2019-05-14T13:56:38.995Z,24.93
2019-05-14T13:58:20.760Z,24.8
2019-05-14T14:00:02.581Z,24.95
2019-05-14T14:01:48.611Z,25.02
2019-05-14T14:03:35.520Z,24.42
2019-05-14T14:05:53.590Z,24.38
2019-05-14T14:07:35.171Z,24.34
2019-05-14T14:09:18.514Z,24.53
2019-05-14T14:11:02.445Z,24.7
2019-05-14T14:12:49.698Z,24.94
2019-05-14T14:14:29.053Z,25
2019-05-14T14:16:14.466Z,25.07
2019-05-14T14:18:00.262Z,24.74
2019-05-14T14:19:44.684Z,24.39
2019-05-14T14:21:26.293Z,24.61
2019-05-14T14:23:21.706Z,24.26
2019-05-14T14:25:09.182Z,23.13
2019-05-14T14:26:52.623Z,22.5
2019-05-14T14:28:34.573Z,22.14
2019-05-14T14:30:19.405Z,22.43
2019-05-14T14:31:58.920Z,23
2019-05-14T14:33:39.095Z,23.82
2019-05-14T14:35:23.236Z,23.87
2019-05-14T14:37:08.798Z,23.55
2019-05-14T14:38:49.398Z,23.57
2019-05-14T14:40:30.103Z,23.92
2019-05-14T14:42:09.812Z,24
2019-05-14T14:43:53.119Z,24.1
2019-05-14T14:45:44.638Z,24.58
2019-05-14T14:47:29.303Z,24.62
2019-05-14T14:49:10.687Z,25.12
2019-05-14T14:50:53.127Z,25.04
2019-05-14T14:52:35.080Z,24.63
2019-05-14T14:54:15.962Z,24.16
2019-05-14T14:55:55.923Z,24.14
2019-05-14T14:57:44.725Z,23.61
2019-05-14T14:59:32.657Z,23.41
2019-05-14T15:01:13.905Z,23.73
2019-05-14T15:02:59.415Z,23.68
2019-05-14T15:04:39.529Z,23.62
2019-05-14T15:06:19.468Z,23.66
2019-05-14T15:08:00.125Z,23.47
2019-05-14T15:09:40.445Z,23.01
2019-05-14T15:11:23.496Z,22.34
2019-05-14T15:13:05.741Z,22.33
2019-05-14T15:14:48.704Z,22.87
2019-05-14T15:16:29.129Z,23.46
2019-05-14T15:18:09.674Z,23.98
2019-05-14T15:19:50.177Z,23.83
2019-05-14T15:21:30.155Z,23.61
2019-05-14T15:23:10.118Z,23.27
2019-05-14T15:24:49.552Z,22.94
2019-05-14T15:26:29.080Z,22.27
2019-05-14T15:28:09.370Z,21.89
2019-05-14T15:29:48.806Z,21.89
2019-05-14T15:31:29.174Z,21.81
2019-05-14T15:33:09.222Z,21.98
2019-05-14T15:34:50.512Z,21.88
2019-05-14T15:36:30.347Z,21.78
2019-05-14T15:38:11.316Z,21.72
2019-05-14T15:39:51.138Z,21.72
2019-05-14T15:41:30.608Z,21.68
2019-05-14T15:43:10.122Z,21.49
2019-05-14T15:44:55.868Z,21.55
2019-05-14T15:46:41.499Z,21.75
2019-05-14T15:48:20.691Z,21.84
2019-05-14T15:50:00.171Z,21.62
2019-05-14T15:51:39.836Z,21.58
2019-05-14T15:53:19.601Z,21.46
2019-05-14T15:54:59.186Z,20.84
2019-05-14T15:56:39.438Z,20.16
2019-05-14T15:58:21.215Z,19.82
2019-05-14T16:00:05.050Z,20.05
2019-05-14T16:01:46.119Z,20.31
2019-05-14T16:03:27.885Z,20.63
2019-05-14T16:05:09.950Z,20.99
2019-05-14T16:06:49.934Z,21.29
2019-05-14T16:08:29.673Z,21.5
2019-05-14T16:10:09.336Z,21.76
2019-05-14T16:11:48.743Z,21.66
2019-05-14T16:13:28.651Z,21.58
2019-05-14T16:15:08.769Z,21.33
2019-05-14T16:16:51.943Z,21.16
2019-05-14T16:18:31.312Z,20.68
2019-05-14T16:20:13.223Z,20.18
2019-05-14T16:22:04.968Z,20.27
2019-05-14T16:23:47.865Z,20.51
2019-05-14T16:25:28.580Z,20.98
2019-05-14T16:27:08.487Z,21.09
2019-05-14T16:28:47.464Z,21.23
2019-05-14T16:30:28.826Z,20.89
2019-05-14T16:32:08.666Z,20.26
2019-05-14T16:33:49.216Z,19.82
2019-05-14T16:35:34.298Z,19.48
2019-05-14T16:37:17.716Z,19.62
2019-05-14T16:39:04.905Z,20.05
2019-05-14T16:40:48.727Z,20.24
2019-05-14T16:42:29.202Z,20.34
2019-05-14T16:44:09.084Z,20.48
2019-05-14T16:45:49.193Z,20.53
2019-05-14T16:47:28.857Z,20.2
2019-05-14T16:49:08.886Z,20.16
2019-05-14T16:50:48.874Z,20.05
2019-05-14T16:52:28.807Z,19.92
2019-05-14T16:54:08.382Z,19.58
2019-05-14T16:55:48.864Z,19.51
2019-05-14T16:57:29.262Z,19.42
2019-05-14T16:59:09.149Z,19.33
2019-05-14T17:00:48.622Z,19.07
2019-05-14T17:02:29.550Z,18.78
2019-05-14T17:04:09.425Z,18.53
2019-05-14T17:05:48.858Z,18.27
2019-05-14T17:07:28.816Z,18.26
2019-05-14T17:09:08.903Z,18.32
2019-05-14T17:10:48.515Z,18.36
2019-05-14T17:12:29.333Z,18.28
2019-05-14T17:14:49.530Z,18.13
2019-05-14T17:16:31.520Z,17.77
2019-05-14T17:18:11.707Z,17.46
2019-05-14T17:19:53.966Z,17.25
2019-05-14T17:21:35.132Z,17.19
2019-05-14T17:23:19.228Z,17.11
2019-05-14T17:24:58.698Z,17.08
2019-05-14T17:26:40.776Z,17.06
2019-05-14T17:28:20.343Z,17.05
2019-05-14T17:29:59.880Z,16.95
2019-05-14T17:31:39.456Z,16.91
2019-05-14T17:33:18.966Z,16.82
2019-05-14T17:34:58.458Z,16.81
2019-05-14T17:36:44.489Z,16.82
2019-05-14T17:38:29.793Z,16.73
2019-05-14T17:40:09.650Z,16.56
2019-05-14T17:41:49.392Z,16.45
2019-05-14T17:43:28.716Z,16.33
2019-05-14T17:45:08.258Z,16.31
2019-05-14T17:46:48.836Z,16.3
2019-05-14T17:48:28.658Z,16.21
2019-05-14T17:50:09.408Z,16.11
2019-05-14T17:51:48.927Z,16.03
2019-05-14T17:53:29.065Z,15.96
2019-05-14T17:55:11.949Z,15.89
2019-05-14T17:57:02.525Z,15.88
2019-05-14T17:58:51.894Z,15.8
2019-05-14T18:00:32.685Z,15.7
2019-05-14T18:02:14.414Z,15.62
2019-05-14T18:04:05.067Z,15.61
2019-05-14T18:05:46.827Z,15.58
2019-05-14T18:07:28.523Z,15.57
2019-05-14T18:09:09.075Z,15.6
2019-05-14T18:10:49.705Z,15.49
2019-05-14T18:12:32.735Z,15.42
2019-05-14T18:14:15.619Z,15.32
2019-05-14T18:15:58.115Z,15.28
2019-05-14T18:17:39.195Z,15.17
2019-05-14T18:19:18.985Z,15.09
2019-05-14T18:20:58.473Z,15.01
2019-05-14T18:22:41.972Z,14.97
2019-05-14T18:24:23.411Z,14.89
2019-05-14T18:26:08.839Z,14.91
2019-05-14T18:27:49.844Z,14.85
2019-05-14T18:29:29.703Z,14.79
2019-05-14T18:31:09.385Z,14.72
2019-05-14T18:32:49.217Z,14.69
2019-05-14T18:34:28.572Z,14.63
2019-05-14T18:36:07.469Z,14.55
2019-05-14T18:37:48.212Z,14.49
2019-05-14T18:39:28.361Z,14.41
2019-05-14T18:41:08.549Z,14.38
2019-05-14T18:42:48.203Z,14.35
2019-05-14T18:44:28.399Z,14.32
2019-05-14T18:46:08.566Z,14.26
2019-05-14T18:47:48.542Z,14.23
2019-05-14T18:49:28.749Z,14.17
2019-05-14T18:51:08.905Z,14.09
2019-05-14T18:52:48.636Z,13.99
2019-05-14T18:54:29.293Z,13.93
2019-05-14T18:56:17.318Z,13.91
2019-05-14T18:58:05.433Z,13.84
2019-05-14T18:59:49.102Z,13.8
2019-05-14T19:01:29.236Z,13.71
2019-05-14T19:03:13.898Z,13.67
2019-05-14T19:04:57.765Z,13.58
2019-05-14T19:06:38.834Z,13.56
2019-05-14T19:08:18.021Z,13.5
2019-05-14T19:09:58.626Z,13.4
2019-05-14T19:11:38.788Z,13.34
2019-05-14T19:13:18.753Z,13.27
2019-05-14T19:14:58.933Z,13.21
2019-05-14T19:16:38.752Z,13.15
2019-05-14T19:18:19.187Z,13.1
2019-05-14T19:19:59.045Z,13.06
2019-05-14T19:21:38.625Z,13.03
2019-05-14T19:23:18.708Z,12.99
2019-05-14T19:24:58.747Z,12.92
2019-05-14T19:26:40.180Z,12.85
2019-05-14T19:28:20.050Z,12.79
2019-05-14T19:30:01.267Z,12.73
2019-05-14T19:31:44.715Z,12.67
2019-05-14T19:33:34.426Z,12.63
2019-05-14T19:35:15.977Z,12.55
2019-05-14T19:36:57.332Z,12.48
2019-05-14T19:38:38.828Z,12.38
2019-05-14T19:40:19.023Z,12.32
2019-05-14T19:41:57.901Z,12.28
2019-05-14T19:43:37.389Z,12.21
2019-05-14T19:45:16.819Z,12.16
2019-05-14T19:46:56.239Z,12.11
2019-05-14T19:48:37.240Z,12.08
2019-05-14T19:50:18.691Z,12.03
2019-05-14T19:51:58.791Z,11.98
2019-05-14T19:53:39.148Z,11.96
2019-05-14T19:55:19.013Z,11.91
2019-05-14T19:57:00.781Z,11.88
2019-05-14T19:58:40.594Z,11.83
2019-05-14T20:00:20.050Z,11.76
2019-05-14T20:01:59.408Z,11.72
2019-05-14T20:03:38.862Z,11.68
2019-05-14T20:05:21.050Z,11.61
2019-05-14T20:07:03.254Z,11.58
2019-05-14T20:08:45.251Z,11.57
2019-05-14T20:10:26.289Z,11.53
2019-05-14T20:12:07.415Z,11.49
2019-05-14T20:13:48.549Z,11.43
2019-05-14T20:15:27.658Z,11.43
2019-05-14T20:17:08.739Z,11.39
2019-05-14T20:18:48.835Z,11.37
2019-05-14T20:20:28.893Z,11.33
2019-05-14T20:22:08.990Z,11.28
2019-05-14T20:23:48.455Z,11.23
2019-05-14T20:25:28.121Z,11.16
2019-05-14T20:27:14.957Z,11.12
2019-05-14T20:28:54.460Z,11.04
2019-05-14T20:30:37.941Z,11.02
2019-05-14T20:32:19.334Z,10.96
2019-05-14T20:33:59.205Z,10.89
2019-05-14T20:35:38.198Z,10.85
2019-05-14T20:37:18.903Z,10.81
2019-05-14T20:38:58.952Z,10.71
2019-05-14T20:40:44.345Z,10.6
2019-05-14T20:42:25.138Z,10.5
2019-05-14T20:44:06.972Z,10.4
2019-05-14T20:45:48.806Z,10.35
2019-05-14T20:47:28.218Z,11.51
2019-05-14T20:49:08.758Z,10.35
2019-05-14T20:50:48.510Z,10.22
2019-05-14T20:52:28.368Z,11.39
2019-05-14T20:54:08.873Z,10.19
2019-05-14T20:55:48.061Z,10.05
2019-05-14T20:57:30.125Z,11.14
2019-05-14T20:59:24.669Z,9.85
2019-05-14T21:01:11.099Z,10.95
2019-05-14T21:02:53.371Z,9.66
2019-05-14T21:04:36.073Z,10.71
2019-05-14T21:06:15.970Z,9.46
2019-05-14T21:07:58.849Z,10.56
2019-05-14T21:09:39.006Z,9.34
2019-05-14T21:11:19.215Z,10.45
2019-05-14T21:12:59.391Z,9.23
2019-05-14T21:14:41.338Z,10.35
2019-05-14T21:16:33.168Z,9.16
2019-05-14T21:18:34.329Z,10.9
2019-05-14T21:20:18.424Z,10.36
2019-05-14T21:21:58.138Z,9.1
2019-05-14T21:23:38.898Z,10.24
2019-05-14T21:25:23.901Z,9.01
2019-05-14T21:27:06.356Z,10.11
2019-05-14T21:28:48.695Z,10.13
2019-05-14T21:30:29.484Z,8.89
2019-05-14T21:32:09.737Z,10.57
2019-05-14T21:33:49.744Z,9.98
2019-05-14T21:35:29.674Z,8.72
2019-05-14T21:37:09.597Z,9.81
2019-05-14T21:38:49.422Z,9.86
2019-05-14T21:40:31.953Z,9.85
2019-05-14T21:42:14.020Z,9.81
2019-05-14T21:43:58.357Z,9.78
2019-05-14T21:45:40.457Z,10.35
2019-05-14T21:47:20.340Z,9.71
2019-05-14T21:49:00.181Z,8.45
2019-05-14T21:50:40.098Z,9.54
2019-05-14T21:52:20.003Z,9.59
2019-05-14T21:53:59.905Z,9.56
2019-05-14T21:55:39.757Z,9.54
2019-05-14T21:57:19.568Z,9.54
2019-05-14T21:59:01.315Z,9.53
2019-05-14T22:00:44.228Z,9.49
2019-05-14T22:02:30.468Z,10.01
2019-05-14T22:04:18.706Z,9.96
2019-05-14T22:05:59.300Z,9.31
2019-05-14T22:07:39.407Z,9.31
2019-05-14T22:09:19.273Z,9.3